Sacramento Mather Airport Sacramento US
ICAO: KMHR
IATA: MHR
Category: Medium
Scheduled Services: No

Elevation: 99 ft
TransAlt. 18000 ft.

Airport Communications:
NORCAL APP/DEP:127.4
ATIS:118.325
CLNC DEL:121.85
GND:121.85
SPARTAN OPS:34.1
TWR:120.65
UNICOM:123.075

KMHR Zoom In..

If you have problems with the map follow the link
https://www.worldairports.se/pages/airport.php?
ICAO=KMHR

Runways:

(A) RW 04L length 6038 ft width 150 ft
---- / hdg 37

(B) RW 04R length 11301 ft width 150 ft
---- / hdg 37

(C) RW 22L length 11301 ft width 150 ft
ILS 111.35 / hdg 217

(D) RW 22R length 6038 ft width 150 ft
---- / hdg 217

Location; KMHR
Day. 05 / Time. 20.45 Zulu
* Altimeter: 30.07
* Temperature: 17° c. 62.6°f.
* Wind from: 130° Speed 08 kn.
Dewpoint: 10° c.
Visibility: 10 Statute Miles.
Clouds: Broken 2000 ft.

KMHR 052045Z 13008KT 10SM BKN200 17/10 A3007


Wind From 130°
Speed 08 kn.

 
 
jpsmedia worldairports.se 2019   terms of use